Time,TemperatureF,DewpointF,PressureIn,WindDirection,WindDirectionDegrees,WindSpeedMPH,WindSpeedGustMPH,Humidity,HourlyPrecipIn,Conditions,Clouds,dailyrainin,SoftwareType,DateUTC
2013-11-02 00:02:00,65.3,63.9,29.54,NNE,23,4.0,4.0,95,0.00,,,0.26,meteohub,2013-11-02 06:02:00,
2013-11-02 00:07:00,65.1,63.7,29.53,North,-999,-999.0,4.0,95,0.00,,,0.00,meteohub,2013-11-02 06:07:00,
2013-11-02 00:12:00,64.8,63.0,29.52,NNE,23,0.0,4.0,94,0.00,,,0.00,meteohub,2013-11-02 06:12:00,
2013-11-02 00:17:00,64.8,63.0,29.52,NNE,23,0.0,4.0,94,0.00,,,0.00,meteohub,2013-11-02 06:17:00,
2013-11-02 00:22:00,64.6,62.8,29.52,NNE,23,3.0,0.0,94,0.00,,,0.00,meteohub,2013-11-02 06:22:00,
2013-11-02 00:27:00,64.6,62.8,29.53,NNE,23,4.0,4.0,94,0.00,,,0.00,meteohub,2013-11-02 06:27:00,
2013-11-02 00:32:00,64.4,62.6,29.53,NNE,23,0.0,4.0,94,0.00,,,0.00,meteohub,2013-11-02 06:32:00,
2013-11-02 00:37:00,64.4,62.6,29.54,West,270,8.0,8.0,94,0.00,,,0.00,meteohub,2013-11-02 06:37:00,
2013-11-02 00:42:00,64.2,62.4,29.53,NW,315,1.0,8.0,94,0.00,,,0.00,meteohub,2013-11-02 06:42:00,
2013-11-02 00:47:00,64.0,62.2,29.52,WNW,293,5.0,8.0,94,0.00,,,0.00,meteohub,2013-11-02 06:47:00,
2013-11-02 00:52:00,64.0,62.6,29.53,SW,225,0.0,8.0,95,0.00,,,0.00,meteohub,2013-11-02 06:52:00,
2013-11-02 00:57:00,63.7,62.6,29.52,West,270,0.0,7.0,96,0.00,,,0.00,meteohub,2013-11-02 06:57:00,
2013-11-02 01:02:00,63.7,62.6,29.53,WNW,293,5.0,7.0,96,0.00,,,0.00,meteohub,2013-11-02 07:02:00,
2013-11-02 01:07:00,63.5,62.4,29.52,WNW,293,1.0,5.0,96,0.00,,,0.00,meteohub,2013-11-02 07:07:00,
2013-11-02 01:12:00,63.3,62.4,29.52,WNW,293,2.0,6.0,97,0.00,,,0.00,meteohub,2013-11-02 07:12:00,
2013-11-02 01:17:00,63.3,62.4,29.52,NW,315,7.0,7.0,97,0.00,,,0.00,meteohub,2013-11-02 07:17:00,
2013-11-02 01:22:00,63.1,62.2,29.52,WNW,293,7.0,7.0,97,0.00,,,0.00,meteohub,2013-11-02 07:22:00,
2013-11-02 01:27:00,63.1,62.2,29.52,WNW,293,4.0,8.0,97,0.00,,,0.00,meteohub,2013-11-02 07:27:00,
2013-11-02 01:32:00,63.0,62.1,29.52,WNW,293,4.0,8.0,97,0.00,,,0.00,meteohub,2013-11-02 07:32:00,
2013-11-02 01:37:00,63.0,62.1,29.52,SW,225,0.0,8.0,97,0.00,,,0.00,meteohub,2013-11-02 07:37:00,
2013-11-02 01:42:00,63.0,62.1,29.51,NNE,23,0.0,7.0,97,0.00,,,0.00,meteohub,2013-11-02 07:42:00,
2013-11-02 01:47:00,63.0,62.1,29.52,SW,225,0.0,4.0,97,0.00,,,0.00,meteohub,2013-11-02 07:47:00,
2013-11-02 01:52:00,63.0,62.1,29.53,SW,225,0.0,2.0,97,0.00,,,0.00,meteohub,2013-11-02 07:52:00,
2013-11-02 01:57:00,63.0,62.1,29.53,NNE,23,0.0,0.0,97,0.00,,,0.00,meteohub,2013-11-02 07:57:00,
2013-11-02 02:02:00,63.0,62.1,29.53,NNE,23,0.0,0.0,97,0.00,,,0.00,meteohub,2013-11-02 08:02:00,
2013-11-02 02:07:00,63.0,62.1,29.53,NNE,23,0.0,0.0,97,0.00,,,0.00,meteohub,2013-11-02 08:07:00,
2013-11-02 02:12:00,63.0,62.1,29.54,NNE,23,0.0,0.0,97,0.00,,,0.00,meteohub,2013-11-02 08:12:00,
2013-11-02 02:17:00,62.8,61.9,29.54,NNE,23,0.0,0.0,97,0.00,,,0.00,meteohub,2013-11-02 08:17:00,
2013-11-02 02:22:00,62.8,61.9,29.55,NNE,23,4.0,0.0,97,0.00,,,0.00,meteohub,2013-11-02 08:22:00,
2013-11-02 02:27:00,62.6,61.7,29.54,NNE,23,2.0,4.0,97,0.00,,,0.00,meteohub,2013-11-02 08:27:00,
2013-11-02 02:32:00,62.6,61.7,29.55,NNE,23,4.0,4.0,97,0.00,,,0.00,meteohub,2013-11-02 08:32:00,
2013-11-02 02:37:00,62.6,61.7,29.55,NNE,23,0.0,4.0,97,0.00,,,0.00,meteohub,2013-11-02 08:37:00,
2013-11-02 02:42:00,62.2,61.7,29.55,South,180,0.0,4.0,98,0.00,,,0.00,meteohub,2013-11-02 08:42:00,
2013-11-02 02:47:00,62.2,61.7,29.55,NW,315,0.0,4.0,98,0.00,,,0.00,meteohub,2013-11-02 08:47:00,
2013-11-02 02:52:00,62.2,61.7,29.55,WNW,293,0.0,0.0,98,0.00,,,0.00,meteohub,2013-11-02 08:52:00,
2013-11-02 02:57:00,62.2,61.7,29.55,WNW,293,0.0,0.0,98,0.00,,,0.00,meteohub,2013-11-02 08:57:00,
2013-11-02 03:02:00,62.2,61.7,29.54,SW,225,3.0,3.0,98,0.00,,,0.00,meteohub,2013-11-02 09:02:00,
2013-11-02 03:07:00,62.1,61.5,29.54,SW,225,0.0,3.0,98,0.00,,,0.00,meteohub,2013-11-02 09:07:00,
2013-11-02 03:12:00,62.1,61.5,29.54,NNE,23,0.0,3.0,98,0.00,,,0.00,meteohub,2013-11-02 09:12:00,
2013-11-02 03:17:00,62.1,61.5,29.54,NNE,23,3.0,3.0,98,0.00,,,0.00,meteohub,2013-11-02 09:17:00,
2013-11-02 03:22:00,61.9,61.3,29.54,NNE,23,3.0,4.0,98,0.00,,,0.00,meteohub,2013-11-02 09:22:00,
2013-11-02 03:27:00,61.7,61.2,29.54,WNW,293,0.0,4.0,98,0.00,,,0.00,meteohub,2013-11-02 09:27:00,
2013-11-02 03:32:00,61.7,61.2,29.54,NW,315,0.0,4.0,98,0.00,,,0.00,meteohub,2013-11-02 09:32:00,
2013-11-02 03:37:00,61.5,61.0,29.53,NNE,23,0.0,2.0,98,0.00,,,0.00,meteohub,2013-11-02 09:37:00,
2013-11-02 03:42:00,61.5,61.0,29.54,SW,225,2.0,2.0,98,0.00,,,0.00,meteohub,2013-11-02 09:42:00,
2013-11-02 03:47:00,61.7,61.2,29.53,NNE,23,0.0,2.0,98,0.00,,,0.00,meteohub,2013-11-02 09:47:00,
2013-11-02 03:52:00,61.7,61.2,29.54,North,-999,-999.0,2.0,98,0.00,,,0.00,meteohub,2013-11-02 09:52:00,
2013-11-02 03:57:00,61.7,61.2,29.54,North,-999,-999.0,2.0,98,0.00,,,0.00,meteohub,2013-11-02 09:57:00,
2013-11-02 04:02:00,61.7,61.2,29.55,NNE,23,4.0,0.0,98,0.00,,,0.00,meteohub,2013-11-02 10:02:00,
2013-11-02 04:07:00,61.5,61.0,29.55,North,-999,-999.0,4.0,98,0.00,,,0.00,meteohub,2013-11-02 10:07:00,
2013-11-02 04:12:00,61.5,61.0,29.55,NNE,23,4.0,4.0,98,0.00,,,0.00,meteohub,2013-11-02 10:12:00,
2013-11-02 04:17:00,61.5,61.0,29.55,NNE,23,4.0,4.0,98,0.00,,,0.00,meteohub,2013-11-02 10:17:00,
2013-11-02 04:22:00,61.5,61.0,29.54,North,-999,-999.0,4.0,98,0.00,,,0.00,meteohub,2013-11-02 10:22:00,
2013-11-02 04:27:00,61.5,61.0,29.54,North,-999,-999.0,4.0,98,0.00,,,0.00,meteohub,2013-11-02 10:27:00,
2013-11-02 04:32:00,61.5,61.0,29.55,NNE,23,4.0,4.0,98,0.00,,,0.00,meteohub,2013-11-02 10:32:00,
2013-11-02 04:37:00,61.5,61.0,29.56,SW,225,0.0,4.0,98,0.00,,,0.00,meteohub,2013-11-02 10:37:00,
2013-11-02 04:42:00,61.3,60.8,29.55,NNE,23,0.0,4.0,98,0.00,,,0.00,meteohub,2013-11-02 10:42:00,
2013-11-02 04:47:00,61.5,61.0,29.56,NNE,23,4.0,4.0,98,0.00,,,0.00,meteohub,2013-11-02 10:47:00,
2013-11-02 04:52:00,61.5,61.0,29.56,NNE,23,3.0,4.0,98,0.00,,,0.00,meteohub,2013-11-02 10:52:00,
2013-11-02 04:57:00,61.7,61.2,29.56,NNE,23,4.0,4.0,98,0.00,,,0.00,meteohub,2013-11-02 10:57:00,
2013-11-02 05:02:00,61.9,61.3,29.56,NNE,23,4.0,4.0,98,0.00,,,0.00,meteohub,2013-11-02 11:02:00,
2013-11-02 05:07:00,62.1,61.5,29.56,NNE,23,3.0,4.0,98,0.00,,,0.00,meteohub,2013-11-02 11:07:00,
2013-11-02 05:12:00,62.4,61.9,29.56,NNE,23,2.0,5.0,98,0.00,,,0.00,meteohub,2013-11-02 11:12:00,
2013-11-02 05:17:00,62.6,61.7,29.56,SW,225,1.0,5.0,97,0.00,,,0.00,meteohub,2013-11-02 11:17:00,
2013-11-02 05:22:00,62.6,61.7,29.56,NNE,23,0.0,5.0,97,0.00,,,0.00,meteohub,2013-11-02 11:22:00,
2013-11-02 05:27:00,62.8,61.9,29.57,NNE,23,0.0,3.0,97,0.00,,,0.00,meteohub,2013-11-02 11:27:00,
2013-11-02 05:32:00,63.0,62.1,29.57,NNE,23,3.0,3.0,97,0.00,,,0.00,meteohub,2013-11-02 11:32:00,
2013-11-02 05:37:00,63.1,62.2,29.57,South,180,4.0,4.0,97,0.00,,,0.00,meteohub,2013-11-02 11:37:00,
2013-11-02 05:42:00,63.5,61.7,29.57,SW,225,4.0,5.0,94,0.00,,,0.00,meteohub,2013-11-02 11:42:00,
2013-11-02 05:47:00,64.0,61.7,29.57,NNE,23,4.0,6.0,92,0.00,,,0.00,meteohub,2013-11-02 11:47:00,
2013-11-02 05:52:00,64.2,61.5,29.58,NNE,23,4.0,6.0,91,0.00,,,0.00,meteohub,2013-11-02 11:52:00,
2013-11-02 05:57:00,64.6,61.3,29.57,NNE,23,4.0,6.0,89,0.00,,,0.00,meteohub,2013-11-02 11:57:00,
2013-11-02 06:02:00,65.1,61.5,29.57,SW,225,6.0,6.0,88,0.00,,,0.00,meteohub,2013-11-02 12:02:00,
2013-11-02 06:07:00,65.3,61.3,29.58,SW,225,4.0,6.0,87,0.00,,,0.00,meteohub,2013-11-02 12:07:00,
2013-11-02 06:12:00,64.9,61.0,29.58,NNE,23,3.0,6.0,87,0.00,,,0.00,meteohub,2013-11-02 12:12:00,
2013-11-02 06:17:00,64.9,61.0,29.58,NNE,23,0.0,6.0,87,0.00,,,0.00,meteohub,2013-11-02 12:17:00,
2013-11-02 06:22:00,65.1,61.5,29.58,North,-999,-999.0,5.0,88,0.00,,,0.00,meteohub,2013-11-02 12:22:00,
2013-11-02 06:27:00,65.5,61.9,29.58,NNE,23,2.0,5.0,88,0.00,,,0.00,meteohub,2013-11-02 12:27:00,
2013-11-02 06:32:00,66.0,62.1,29.58,NNE,23,0.0,2.0,87,0.00,,,0.00,meteohub,2013-11-02 12:32:00,
2013-11-02 06:37:00,66.6,61.9,29.59,NNE,23,4.0,4.0,85,0.00,,,0.00,meteohub,2013-11-02 12:37:00,
2013-11-02 06:42:00,66.9,62.2,29.58,NNE,23,3.0,4.0,85,0.00,,,0.00,meteohub,2013-11-02 12:42:00,
2013-11-02 06:47:00,67.3,62.6,29.59,North,-999,-999.0,4.0,85,0.00,,,0.00,meteohub,2013-11-02 12:47:00,
2013-11-02 06:52:00,67.3,62.6,29.59,North,-999,-999.0,4.0,85,0.00,,,0.00,meteohub,2013-11-02 12:52:00,
2013-11-02 06:57:00,67.6,63.3,29.59,NNW,338,4.0,4.0,86,0.00,,,0.00,meteohub,2013-11-02 12:57:00,
2013-11-02 07:02:00,68.0,63.0,29.60,NNE,23,2.0,4.0,84,0.00,,,0.00,meteohub,2013-11-02 13:02:00,
2013-11-02 07:07:00,68.7,63.3,29.59,SW,225,5.0,5.0,83,0.00,,,0.00,meteohub,2013-11-02 13:07:00,
2013-11-02 07:12:00,69.1,63.7,29.59,North,-999,-999.0,5.0,83,0.00,,,0.00,meteohub,2013-11-02 13:12:00,
2013-11-02 07:17:00,69.1,63.7,29.59,NW,315,4.0,5.0,83,0.00,,,0.00,meteohub,2013-11-02 13:17:00,
2013-11-02 07:22:00,68.7,63.3,29.60,North,-999,-999.0,4.0,83,0.00,,,0.00,meteohub,2013-11-02 13:22:00,
2013-11-02 07:27:00,68.9,63.5,29.60,North,-999,-999.0,4.0,83,0.00,,,0.00,meteohub,2013-11-02 13:27:00,
2013-11-02 07:32:00,69.4,64.0,29.60,NNE,23,1.0,-999.0,83,0.00,,,0.00,meteohub,2013-11-02 13:32:00,
2013-11-02 07:37:00,70.2,64.0,29.60,NNE,23,1.0,3.0,81,0.00,,,0.00,meteohub,2013-11-02 13:37:00,
2013-11-02 07:42:00,71.1,63.9,29.59,North,-999,-999.0,3.0,78,0.00,,,0.00,meteohub,2013-11-02 13:42:00,
2013-11-02 07:47:00,72.3,64.4,29.60,West,270,0.0,3.0,76,0.00,,,0.00,meteohub,2013-11-02 13:47:00,
2013-11-02 07:52:00,73.4,64.9,29.60,North,-999,-999.0,0.0,75,0.00,,,0.00,meteohub,2013-11-02 13:52:00,
2013-11-02 07:57:00,73.9,63.9,29.60,WNW,293,4.0,0.0,71,0.00,,,0.00,meteohub,2013-11-02 13:57:00,
2013-11-02 08:02:00,73.8,63.7,29.60,NW,315,4.0,5.0,71,0.00,,,0.00,meteohub,2013-11-02 14:02:00,
2013-11-02 08:07:00,74.1,63.7,29.60,West,270,3.0,5.0,70,0.00,,,0.00,meteohub,2013-11-02 14:07:00,
2013-11-02 08:12:00,74.1,63.7,29.61,NNE,23,1.0,5.0,70,0.00,,,0.00,meteohub,2013-11-02 14:12:00,
2013-11-02 08:17:00,74.3,63.1,29.61,NNE,23,4.0,4.0,68,0.00,,,0.00,meteohub,2013-11-02 14:17:00,
2013-11-02 08:22:00,73.8,62.1,29.60,NNE,23,3.0,5.0,67,0.00,,,0.00,meteohub,2013-11-02 14:22:00,
2013-11-02 08:27:00,73.9,62.8,29.60,NW,315,4.0,5.0,68,0.00,,,0.00,meteohub,2013-11-02 14:27:00,
2013-11-02 08:32:00,73.6,62.8,29.60,NW,315,5.0,5.0,69,0.00,,,0.00,meteohub,2013-11-02 14:32:00,
2013-11-02 08:37:00,73.2,63.7,29.60,NW,315,8.0,8.0,72,0.00,,,0.00,meteohub,2013-11-02 14:37:00,
2013-11-02 08:42:00,72.5,63.3,29.60,NW,315,6.0,9.0,73,0.00,,,0.00,meteohub,2013-11-02 14:42:00,
2013-11-02 08:47:00,72.1,63.9,29.59,NW,315,8.0,9.0,75,0.00,,,0.00,meteohub,2013-11-02 14:47:00,
2013-11-02 08:52:00,72.0,63.7,29.59,NW,315,8.0,8.0,75,0.00,,,0.00,meteohub,2013-11-02 14:52:00,
2013-11-02 08:57:00,72.1,63.9,29.60,NW,315,9.0,9.0,75,0.00,,,0.00,meteohub,2013-11-02 14:57:00,
2013-11-02 09:02:00,73.2,65.1,29.59,West,270,6.0,10.0,76,0.00,,,0.00,meteohub,2013-11-02 15:02:00,
2013-11-02 09:07:00,74.5,65.7,29.58,WNW,293,4.0,10.0,74,0.00,,,0.00,meteohub,2013-11-02 15:07:00,
2013-11-02 09:12:00,74.5,64.4,29.59,West,270,8.0,10.0,71,0.00,,,0.00,meteohub,2013-11-02 15:12:00,
2013-11-02 09:17:00,74.1,64.6,29.59,SW,225,4.0,10.0,72,0.00,,,0.00,meteohub,2013-11-02 15:17:00,
2013-11-02 09:22:00,74.3,64.8,29.59,West,270,8.0,10.0,72,0.00,,,0.00,meteohub,2013-11-02 15:22:00,
2013-11-02 09:27:00,74.5,64.4,29.58,SW,225,7.0,10.0,71,0.00,,,0.00,meteohub,2013-11-02 15:27:00,
2013-11-02 09:32:00,75.2,64.4,29.57,West,270,8.0,8.0,69,0.00,,,0.00,meteohub,2013-11-02 15:32:00,
2013-11-02 09:37:00,74.5,63.7,29.58,West,270,8.0,10.0,69,0.00,,,0.00,meteohub,2013-11-02 15:37:00,
2013-11-02 09:42:00,75.4,64.6,29.57,NNE,23,2.0,10.0,69,0.00,,,0.00,meteohub,2013-11-02 15:42:00,
2013-11-02 09:47:00,75.9,64.2,29.57,West,270,6.0,10.0,67,0.00,,,0.00,meteohub,2013-11-02 15:47:00,
2013-11-02 09:52:00,76.1,63.9,29.57,West,270,10.0,12.0,66,0.00,,,0.00,meteohub,2013-11-02 15:52:00,
2013-11-02 09:57:00,75.7,63.5,29.55,NW,315,5.0,12.0,66,0.00,,,0.00,meteohub,2013-11-02 15:57:00,
2013-11-02 10:02:00,75.4,64.0,29.56,NW,315,7.0,12.0,68,0.00,,,0.00,meteohub,2013-11-02 16:02:00,
2013-11-02 10:07:00,75.7,64.4,29.55,West,270,8.0,10.0,68,0.00,,,0.00,meteohub,2013-11-02 16:07:00,
2013-11-02 10:12:00,75.7,64.0,29.55,West,270,11.0,11.0,67,0.00,,,0.00,meteohub,2013-11-02 16:12:00,
2013-11-02 10:17:00,75.9,63.7,29.55,West,270,10.0,12.0,66,0.00,,,0.00,meteohub,2013-11-02 16:17:00,
2013-11-02 10:22:00,75.4,63.1,29.56,West,270,9.0,15.0,66,0.00,,,0.00,meteohub,2013-11-02 16:22:00,
2013-11-02 10:27:00,75.2,63.1,29.55,NW,315,11.0,15.0,66,0.00,,,0.00,meteohub,2013-11-02 16:27:00,
2013-11-02 10:32:00,75.4,63.1,29.54,West,270,11.0,15.0,66,0.00,,,0.00,meteohub,2013-11-02 16:32:00,
2013-11-02 10:37:00,75.9,64.2,29.54,West,270,5.0,12.0,67,0.00,,,0.00,meteohub,2013-11-02 16:37:00,
2013-11-02 10:42:00,76.8,63.7,29.53,NW,315,13.0,13.0,64,0.00,,,0.00,meteohub,2013-11-02 16:42:00,
2013-11-02 10:47:00,76.5,64.8,29.53,West,270,7.0,15.0,67,0.00,,,0.00,meteohub,2013-11-02 16:47:00,
2013-11-02 10:52:00,77.5,64.8,29.52,NW,315,11.0,15.0,65,0.00,,,0.00,meteohub,2013-11-02 16:52:00,
2013-11-02 10:57:00,77.2,63.7,29.52,NW,315,6.0,15.0,63,0.00,,,0.00,meteohub,2013-11-02 16:57:00,
2013-11-02 11:02:00,76.6,64.9,29.51,NW,315,9.0,13.0,67,0.00,,,0.00,meteohub,2013-11-02 17:02:00,
2013-11-02 11:07:00,76.5,65.1,29.51,West,270,10.0,13.0,68,0.00,,,0.00,meteohub,2013-11-02 17:07:00,
2013-11-02 11:12:00,77.4,64.8,29.51,West,270,8.0,14.0,65,0.00,,,0.00,meteohub,2013-11-02 17:12:00,
2013-11-02 11:17:00,77.4,64.2,29.51,WNW,293,8.0,14.0,64,0.00,,,0.00,meteohub,2013-11-02 17:17:00,
2013-11-02 11:22:00,77.4,64.2,29.50,NW,315,6.0,14.0,64,0.00,,,0.00,meteohub,2013-11-02 17:22:00,
2013-11-02 11:28:00,77.5,64.4,29.50,WNW,293,4.0,14.0,64,0.00,,,0.00,meteohub,2013-11-02 17:28:00,
2013-11-02 11:33:00,77.5,64.8,29.49,West,270,8.0,14.0,65,0.00,,,0.00,meteohub,2013-11-02 17:33:00,
2013-11-02 11:38:00,78.3,65.1,29.49,NW,315,8.0,13.0,64,0.00,,,0.00,meteohub,2013-11-02 17:38:00,
2013-11-02 11:43:00,78.6,64.9,29.48,NW,315,7.0,13.0,63,0.00,,,0.00,meteohub,2013-11-02 17:43:00,
2013-11-02 11:48:00,79.0,65.3,29.48,NW,315,12.0,13.0,63,0.00,,,0.00,meteohub,2013-11-02 17:48:00,
2013-11-02 11:54:00,79.0,65.3,29.47,West,270,8.0,13.0,63,0.00,,,0.00,meteohub,2013-11-02 17:54:00,
2013-11-02 11:59:00,79.3,65.7,29.47,NW,315,8.0,13.0,63,0.00,,,0.00,meteohub,2013-11-02 17:59:00,
2013-11-02 12:04:00,79.0,64.8,29.46,West,270,8.0,13.0,62,0.00,,,0.00,meteohub,2013-11-02 18:04:00,
2013-11-02 12:09:00,78.4,65.3,29.46,WNW,293,7.0,9.0,64,0.00,,,0.00,meteohub,2013-11-02 18:09:00,
2013-11-02 12:14:00,78.3,65.5,29.46,West,270,15.0,15.0,65,0.00,,,0.00,meteohub,2013-11-02 18:14:00,
2013-11-02 12:19:00,78.3,65.5,29.46,NW,315,4.0,13.0,65,0.00,,,0.00,meteohub,2013-11-02 18:19:00,
2013-11-02 12:24:00,78.1,65.8,29.45,West,270,8.0,15.0,66,0.00,,,0.00,meteohub,2013-11-02 18:24:00,
2013-11-02 12:29:00,78.1,65.8,29.44,West,270,11.0,15.0,66,0.00,,,0.00,meteohub,2013-11-02 18:29:00,
2013-11-02 12:34:00,78.4,66.2,29.44,WNW,293,11.0,13.0,66,0.00,,,0.00,meteohub,2013-11-02 18:34:00,
2013-11-02 12:39:00,77.9,66.0,29.44,West,270,12.0,13.0,67,0.00,,,0.00,meteohub,2013-11-02 18:39:00,
2013-11-02 12:44:00,76.6,65.3,29.44,SW,225,11.0,13.0,68,0.00,,,0.00,meteohub,2013-11-02 18:44:00,
2013-11-02 12:49:00,76.6,66.2,29.43,NW,315,10.0,14.0,70,0.00,,,0.00,meteohub,2013-11-02 18:49:00,
2013-11-02 12:54:00,75.9,66.2,29.44,NW,315,14.0,14.0,72,0.00,,,0.00,meteohub,2013-11-02 18:54:00,
2013-11-02 12:59:00,75.4,66.6,29.44,West,270,10.0,16.0,74,0.00,,,0.00,meteohub,2013-11-02 18:59:00,
2013-11-02 13:04:00,75.2,66.7,29.43,NW,315,15.0,16.0,75,0.00,,,0.00,meteohub,2013-11-02 19:04:00,
2013-11-02 13:09:00,74.5,66.4,29.42,NW,315,9.0,16.0,76,0.00,,,0.00,meteohub,2013-11-02 19:09:00,
2013-11-02 13:14:00,74.3,66.6,29.43,NW,315,15.0,15.0,77,0.00,,,0.00,meteohub,2013-11-02 19:14:00,
2013-11-02 13:19:00,74.1,66.0,29.43,West,270,7.0,15.0,76,0.00,,,0.00,meteohub,2013-11-02 19:19:00,
2013-11-02 13:24:00,74.5,66.0,29.42,West,270,8.0,15.0,75,0.00,,,0.00,meteohub,2013-11-02 19:24:00,
2013-11-02 13:29:00,74.1,65.7,29.42,WNW,293,10.0,15.0,75,0.00,,,0.00,meteohub,2013-11-02 19:29:00,
2013-11-02 13:34:00,75.0,66.6,29.42,West,270,15.0,15.0,75,0.00,,,0.00,meteohub,2013-11-02 19:34:00,
2013-11-02 13:39:00,75.0,65.8,29.43,West,270,8.0,15.0,73,0.00,,,0.00,meteohub,2013-11-02 19:39:00,
2013-11-02 13:44:00,75.7,66.0,29.42,NW,315,7.0,15.0,72,0.00,,,0.00,meteohub,2013-11-02 19:44:00,
2013-11-02 13:50:00,76.5,65.5,29.43,SW,225,7.0,15.0,69,0.00,,,0.00,meteohub,2013-11-02 19:50:00,
2013-11-02 13:55:00,77.2,65.8,29.42,NW,315,4.0,15.0,68,0.00,,,0.00,meteohub,2013-11-02 19:55:00,
2013-11-02 14:00:00,76.8,65.5,29.42,NW,315,15.0,15.0,68,0.00,,,0.00,meteohub,2013-11-02 20:00:00,
2013-11-02 14:05:00,76.5,65.1,29.41,West,270,11.0,13.0,68,0.00,,,0.00,meteohub,2013-11-02 20:05:00,
2013-11-02 14:10:00,77.4,65.5,29.40,NW,315,15.0,16.0,67,0.00,,,0.00,meteohub,2013-11-02 20:10:00,
2013-11-02 14:15:00,77.0,65.1,29.42,West,270,8.0,16.0,67,0.00,,,0.00,meteohub,2013-11-02 20:15:00,
2013-11-02 14:20:00,77.5,65.7,29.42,WNW,293,7.0,16.0,67,0.00,,,0.00,meteohub,2013-11-02 20:20:00,
2013-11-02 14:25:00,78.3,66.0,29.41,West,270,4.0,16.0,66,0.00,,,0.00,meteohub,2013-11-02 20:25:00,
2013-11-02 14:30:00,78.1,64.9,29.41,West,270,9.0,14.0,64,0.00,,,0.00,meteohub,2013-11-02 20:30:00,
2013-11-02 14:35:00,77.5,64.8,29.41,West,270,15.0,15.0,65,0.00,,,0.00,meteohub,2013-11-02 20:35:00,
2013-11-02 14:40:00,76.5,65.1,29.41,West,270,13.0,15.0,68,0.00,,,0.00,meteohub,2013-11-02 20:40:00,
2013-11-02 14:45:00,76.8,65.8,29.42,West,270,11.0,15.0,69,0.00,,,0.00,meteohub,2013-11-02 20:45:00,
2013-11-02 14:50:00,75.4,64.6,29.42,West,270,13.0,16.0,69,0.00,,,0.00,meteohub,2013-11-02 20:50:00,
2013-11-02 14:55:00,74.3,65.5,29.42,West,270,14.0,16.0,74,0.00,,,0.00,meteohub,2013-11-02 20:55:00,
2013-11-02 15:00:00,73.8,65.7,29.41,West,270,10.0,16.0,76,0.00,,,0.00,meteohub,2013-11-02 21:00:00,
2013-11-02 15:05:00,73.6,65.5,29.42,NW,315,20.0,20.0,76,0.00,,,0.00,meteohub,2013-11-02 21:05:00,
2013-11-02 15:10:00,73.2,65.1,29.42,West,270,12.0,20.0,76,0.00,,,0.00,meteohub,2013-11-02 21:10:00,
2013-11-02 15:15:00,73.0,65.8,29.42,West,270,13.0,20.0,78,0.00,,,0.00,meteohub,2013-11-02 21:15:00,
2013-11-02 15:20:00,72.9,66.0,29.42,NW,315,8.0,20.0,79,0.00,,,0.00,meteohub,2013-11-02 21:20:00,
2013-11-02 15:25:00,73.0,66.2,29.42,NW,315,6.0,15.0,79,0.00,,,0.00,meteohub,2013-11-02 21:25:00,
2013-11-02 15:30:00,72.9,65.7,29.42,West,270,11.0,15.0,78,0.00,,,0.00,meteohub,2013-11-02 21:30:00,
2013-11-02 15:35:00,72.9,66.0,29.42,NW,315,6.0,15.0,79,0.00,,,0.00,meteohub,2013-11-02 21:35:00,
2013-11-02 15:40:00,73.0,65.8,29.42,West,270,7.0,15.0,78,0.00,,,0.00,meteohub,2013-11-02 21:40:00,
2013-11-02 15:45:00,72.7,65.5,29.43,NW,315,10.0,15.0,78,0.00,,,0.00,meteohub,2013-11-02 21:45:00,
2013-11-02 15:50:00,72.9,66.0,29.43,NW,315,8.0,12.0,79,0.00,,,0.00,meteohub,2013-11-02 21:50:00,
2013-11-02 15:55:00,72.9,65.7,29.44,West,270,8.0,12.0,78,0.00,,,0.00,meteohub,2013-11-02 21:55:00,
2013-11-02 16:00:00,72.5,65.7,29.44,NNE,23,4.0,11.0,79,0.00,,,0.00,meteohub,2013-11-02 22:00:00,
2013-11-02 16:05:00,72.1,65.3,29.44,NW,315,9.0,11.0,79,0.00,,,0.00,meteohub,2013-11-02 22:05:00,
2013-11-02 16:11:00,72.0,64.8,29.45,NW,315,10.0,11.0,78,0.00,,,0.00,meteohub,2013-11-02 22:11:00,
2013-11-02 16:16:00,72.3,64.8,29.44,WNW,293,3.0,13.0,77,0.00,,,0.00,meteohub,2013-11-02 22:16:00,
2013-11-02 16:21:00,72.3,64.4,29.43,West,270,15.0,15.0,76,0.00,,,0.00,meteohub,2013-11-02 22:21:00,
2013-11-02 16:26:00,71.4,65.3,29.44,NW,315,13.0,15.0,81,0.00,,,0.00,meteohub,2013-11-02 22:26:00,
2013-11-02 16:31:00,70.9,65.8,29.44,West,270,10.0,15.0,84,0.00,,,0.00,meteohub,2013-11-02 22:31:00,
2013-11-02 16:36:00,70.5,65.5,29.44,NW,315,10.0,15.0,84,0.00,,,0.00,meteohub,2013-11-02 22:36:00,
2013-11-02 16:41:00,70.3,65.7,29.44,NW,315,8.0,13.0,85,0.00,,,0.00,meteohub,2013-11-02 22:41:00,
2013-11-02 16:46:00,70.5,65.8,29.43,West,270,8.0,12.0,85,0.00,,,0.00,meteohub,2013-11-02 22:46:00,
2013-11-02 16:51:00,70.5,65.8,29.44,NW,315,11.0,11.0,85,0.00,,,0.00,meteohub,2013-11-02 22:51:00,
2013-11-02 16:56:00,70.3,65.3,29.44,NW,315,8.0,14.0,84,0.00,,,0.00,meteohub,2013-11-02 22:56:00,
2013-11-02 17:01:00,70.3,65.7,29.45,West,270,2.0,14.0,85,0.00,,,0.00,meteohub,2013-11-02 23:01:00,
2013-11-02 17:06:00,70.0,65.3,29.44,NW,315,5.0,14.0,85,0.00,,,0.00,meteohub,2013-11-02 23:06:00,
2013-11-02 17:11:00,69.8,65.1,29.45,West,270,8.0,11.0,85,0.00,,,0.00,meteohub,2013-11-02 23:11:00,
2013-11-02 17:16:00,69.6,65.3,29.46,NW,315,11.0,11.0,86,0.00,,,0.00,meteohub,2013-11-02 23:16:00,
2013-11-02 17:21:00,69.3,64.9,29.46,NW,315,7.0,11.0,86,0.00,,,0.00,meteohub,2013-11-02 23:21:00,
2013-11-02 17:26:00,69.1,64.8,29.46,NW,315,5.0,11.0,86,0.00,,,0.00,meteohub,2013-11-02 23:26:00,
2013-11-02 17:31:00,68.9,64.9,29.46,WNW,293,2.0,11.0,87,0.00,,,0.00,meteohub,2013-11-02 23:31:00,
2013-11-02 17:36:00,68.7,64.8,29.47,NW,315,4.0,8.0,87,0.00,,,0.00,meteohub,2013-11-02 23:36:00,
2013-11-02 17:41:00,68.7,64.9,29.46,NW,315,6.0,8.0,88,0.00,,,0.00,meteohub,2013-11-02 23:41:00,
2013-11-02 17:46:00,68.7,64.9,29.47,WNW,293,2.0,6.0,88,0.00,,,0.00,meteohub,2013-11-02 23:46:00,
2013-11-02 17:51:00,68.9,65.5,29.48,WNW,293,4.0,6.0,89,0.00,,,0.00,meteohub,2013-11-02 23:51:00,
2013-11-02 17:56:00,68.7,65.7,29.48,West,270,2.0,6.0,90,0.00,,,0.00,meteohub,2013-11-02 23:56:00,
2013-11-02 18:01:00,68.7,66.0,29.47,SW,225,0.0,5.0,91,0.00,,,0.00,meteohub,2013-11-03 00:01:00,
2013-11-02 18:06:00,68.5,65.8,29.47,NW,315,10.0,10.0,91,0.00,,,0.00,meteohub,2013-11-03 00:06:00,
2013-11-02 18:11:00,68.5,64.6,29.49,NW,315,5.0,10.0,87,0.00,,,0.00,meteohub,2013-11-03 00:11:00,
2013-11-02 18:16:00,68.5,64.2,29.49,West,270,5.0,10.0,86,0.00,,,0.00,meteohub,2013-11-03 00:16:00,
2013-11-02 18:21:00,68.5,64.2,29.49,NW,315,5.0,10.0,86,0.00,,,0.00,meteohub,2013-11-03 00:21:00,
2013-11-02 18:26:00,68.5,64.2,29.48,NW,315,4.0,10.0,86,0.00,,,0.00,meteohub,2013-11-03 00:26:00,
2013-11-02 18:31:00,68.4,64.4,29.49,NW,315,0.0,8.0,87,0.00,,,0.00,meteohub,2013-11-03 00:31:00,
2013-11-02 18:36:00,68.4,64.6,29.49,West,270,0.0,6.0,88,0.00,,,0.00,meteohub,2013-11-03 00:36:00,
2013-11-02 18:42:00,68.0,64.6,29.49,West,270,0.0,6.0,89,0.00,,,0.00,meteohub,2013-11-03 00:42:00,
2013-11-02 18:47:00,68.0,64.9,29.50,NNE,23,0.0,4.0,90,0.00,,,0.00,meteohub,2013-11-03 00:47:00,
2013-11-02 18:52:00,67.6,64.9,29.50,NNE,23,0.0,4.0,91,0.00,,,0.00,meteohub,2013-11-03 00:52:00,
2013-11-02 18:57:00,67.6,65.3,29.51,North,-999,-999.0,3.0,92,0.00,,,0.00,meteohub,2013-11-03 00:57:00,
2013-11-02 19:02:00,67.6,65.5,29.52,North,-999,-999.0,1.0,93,0.00,,,0.00,meteohub,2013-11-03 01:02:00,
2013-11-02 19:07:00,67.5,65.7,29.52,North,-999,-999.0,-999.0,94,0.00,,,0.00,meteohub,2013-11-03 01:07:00,
2013-11-02 19:12:00,67.5,65.7,29.52,North,-999,-999.0,-999.0,94,0.00,,,0.00,meteohub,2013-11-03 01:12:00,
2013-11-02 19:17:00,67.3,65.5,29.52,West,270,4.0,4.0,94,0.00,,,0.00,meteohub,2013-11-03 01:17:00,
2013-11-02 19:22:00,67.3,65.5,29.52,West,270,3.0,4.0,94,0.00,,,0.00,meteohub,2013-11-03 01:22:00,
2013-11-02 19:27:00,67.3,65.5,29.52,North,-999,-999.0,4.0,94,0.00,,,0.00,meteohub,2013-11-03 01:27:00,
2013-11-02 19:32:00,67.1,65.3,29.52,West,270,0.0,4.0,94,0.00,,,0.00,meteohub,2013-11-03 01:32:00,
2013-11-02 19:37:00,67.3,65.5,29.54,West,270,0.0,2.0,94,0.00,,,0.00,meteohub,2013-11-03 01:37:00,
2013-11-02 19:42:00,67.3,65.5,29.53,West,270,0.0,2.0,94,0.00,,,0.00,meteohub,2013-11-03 01:42:00,
2013-11-02 19:47:00,67.3,65.1,29.52,West,270,1.0,0.0,93,0.00,,,0.00,meteohub,2013-11-03 01:47:00,
2013-11-02 19:52:00,67.3,65.1,29.54,West,270,2.0,2.0,93,0.00,,,0.00,meteohub,2013-11-03 01:52:00,
2013-11-02 19:57:00,67.3,65.1,29.54,West,270,0.0,2.0,93,0.00,,,0.00,meteohub,2013-11-03 01:57:00,
2013-11-02 20:02:00,67.1,64.9,29.54,West,270,0.0,2.0,93,0.00,,,0.00,meteohub,2013-11-03 02:02:00,
2013-11-02 20:07:00,67.1,64.9,29.55,NW,315,0.0,2.0,93,0.00,,,0.00,meteohub,2013-11-03 02:07:00,
2013-11-02 20:12:00,67.1,65.3,29.55,WNW,293,0.0,2.0,94,0.00,,,0.00,meteohub,2013-11-03 02:12:00,
2013-11-02 20:17:00,66.9,65.1,29.55,WNW,293,0.0,2.0,94,0.00,,,0.00,meteohub,2013-11-03 02:17:00,
2013-11-02 20:22:00,66.9,65.1,29.55,NW,315,0.0,0.0,94,0.00,,,0.00,meteohub,2013-11-03 02:22:00,
2013-11-02 20:27:00,66.9,65.1,29.55,SW,225,0.0,0.0,94,0.00,,,0.00,meteohub,2013-11-03 02:27:00,
2013-11-02 20:32:00,66.9,65.1,29.56,WNW,293,0.0,0.0,94,0.00,,,0.00,meteohub,2013-11-03 02:32:00,
2013-11-02 20:37:00,66.9,65.1,29.56,WNW,293,0.0,0.0,94,0.00,,,0.00,meteohub,2013-11-03 02:37:00,
2013-11-02 20:42:00,67.1,65.7,29.56,NW,315,0.0,0.0,95,0.00,,,0.00,meteohub,2013-11-03 02:42:00,
2013-11-02 20:47:00,67.1,65.7,29.56,NW,315,3.0,3.0,95,0.00,,,0.00,meteohub,2013-11-03 02:47:00,
2013-11-02 20:52:00,66.9,65.5,29.55,West,270,4.0,6.0,95,0.00,,,0.00,meteohub,2013-11-03 02:52:00,
2013-11-02 20:57:00,66.9,65.5,29.56,NW,315,0.0,6.0,95,0.00,,,0.00,meteohub,2013-11-03 02:57:00,
2013-11-02 21:02:00,67.1,65.8,29.57,West,270,5.0,7.0,96,0.00,,,0.00,meteohub,2013-11-03 03:02:00,
2013-11-02 21:07:00,66.6,65.3,29.56,NW,315,4.0,8.0,96,0.00,,,0.00,meteohub,2013-11-03 03:07:00,
2013-11-02 21:12:00,66.7,65.5,29.57,NW,315,4.0,8.0,96,0.00,,,0.00,meteohub,2013-11-03 03:12:00,
2013-11-02 21:17:00,66.4,65.1,29.57,NW,315,5.0,8.0,96,0.00,,,0.00,meteohub,2013-11-03 03:17:00,
2013-11-02 21:22:00,66.4,65.5,29.57,West,270,5.0,8.0,97,0.00,,,0.00,meteohub,2013-11-03 03:22:00,
2013-11-02 21:27:00,66.2,65.3,29.57,NW,315,3.0,7.0,97,0.00,,,0.00,meteohub,2013-11-03 03:27:00,
2013-11-02 21:32:00,66.2,65.3,29.57,NW,315,0.0,5.0,97,0.00,,,0.00,meteohub,2013-11-03 03:32:00,
2013-11-02 21:37:00,66.4,65.5,29.58,WNW,293,0.0,5.0,97,0.00,,,0.00,meteohub,2013-11-03 03:37:00,
2013-11-02 21:42:00,66.2,65.3,29.58,WNW,293,0.0,4.0,97,0.00,,,0.00,meteohub,2013-11-03 03:42:00,
2013-11-02 21:47:00,66.2,65.3,29.58,West,270,3.0,3.0,97,0.00,,,0.00,meteohub,2013-11-03 03:47:00,
2013-11-02 21:52:00,66.2,65.3,29.58,SW,225,3.0,4.0,97,0.00,,,0.00,meteohub,2013-11-03 03:52:00,
2013-11-02 21:57:00,66.0,65.5,29.58,NW,315,2.0,4.0,98,0.00,,,0.00,meteohub,2013-11-03 03:57:00,
2013-11-02 22:01:00,66.0,65.5,29.58,NW,315,0.0,4.0,98,0.00,,,0.00,meteohub,2013-11-03 04:01:00,
2013-11-02 22:03:00,66.0,65.5,29.58,NW,315,0.0,4.0,98,0.00,,,0.00,meteohub,2013-11-03 04:03:00,
2013-11-02 22:08:00,65.8,65.3,29.58,NW,315,0.0,3.0,98,0.00,,,0.00,meteohub,2013-11-03 04:08:00,
2013-11-02 22:13:00,65.8,65.3,29.58,NW,315,0.0,3.0,98,0.00,,,0.00,meteohub,2013-11-03 04:13:00,
2013-11-02 22:18:00,65.8,65.3,29.58,West,270,0.0,0.0,98,0.00,,,0.00,meteohub,2013-11-03 04:18:00,
2013-11-02 22:23:00,65.8,65.3,29.57,WNW,293,0.0,0.0,98,0.00,,,0.00,meteohub,2013-11-03 04:23:00,
2013-11-02 22:28:00,65.8,65.3,29.57,WNW,293,0.0,0.0,98,0.00,,,0.00,meteohub,2013-11-03 04:28:00,
2013-11-02 22:33:00,65.7,65.1,29.57,WNW,293,0.0,0.0,98,0.00,,,0.00,meteohub,2013-11-03 04:33:00,
2013-11-02 22:38:00,65.7,65.1,29.57,WNW,293,0.0,0.0,98,0.00,,,0.00,meteohub,2013-11-03 04:38:00,
2013-11-02 22:43:00,65.5,64.9,29.58,WNW,293,0.0,0.0,98,0.00,,,0.00,meteohub,2013-11-03 04:43:00,
2013-11-02 22:48:00,65.5,64.9,29.58,WNW,293,0.0,0.0,98,0.00,,,0.00,meteohub,2013-11-03 04:48:00,
2013-11-02 22:53:00,65.5,64.9,29.58,NW,315,0.0,0.0,98,0.00,,,0.00,meteohub,2013-11-03 04:53:00,
2013-11-02 22:58:00,65.7,65.1,29.58,NW,315,0.0,0.0,98,0.00,,,0.00,meteohub,2013-11-03 04:58:00,
2013-11-02 23:03:00,65.7,65.1,29.58,West,270,6.0,0.0,98,0.00,,,0.00,meteohub,2013-11-03 05:03:00,
2013-11-02 23:08:00,65.7,65.1,29.58,NW,315,3.0,6.0,98,0.00,,,0.00,meteohub,2013-11-03 05:08:00,
2013-11-02 23:13:00,65.5,65.1,29.57,NW,315,0.0,6.0,99,0.00,,,0.00,meteohub,2013-11-03 05:13:00,
2013-11-02 23:18:00,65.5,65.1,29.57,NW,315,3.0,6.0,99,0.00,,,0.00,meteohub,2013-11-03 05:18:00,
2013-11-02 23:23:00,65.3,64.9,29.58,NW,315,2.0,4.0,99,0.00,,,0.00,meteohub,2013-11-03 05:23:00,
2013-11-02 23:28:00,65.3,64.8,29.57,NW,315,0.0,4.0,98,0.00,,,0.00,meteohub,2013-11-03 05:28:00,
2013-11-02 23:33:00,65.3,64.8,29.57,West,270,0.0,4.0,98,0.00,,,0.00,meteohub,2013-11-03 05:33:00,
2013-11-02 23:38:00,65.3,64.8,29.57,NW,315,0.0,4.0,98,0.00,,,0.00,meteohub,2013-11-03 05:38:00,
2013-11-02 23:43:00,65.3,64.8,29.58,NW,315,0.0,3.0,98,0.00,,,0.00,meteohub,2013-11-03 05:43:00,
2013-11-02 23:48:00,65.3,64.8,29.57,NW,315,0.0,0.0,98,0.00,,,0.00,meteohub,2013-11-03 05:48:00,
2013-11-02 23:53:00,65.3,64.8,29.57,WSW,248,0.0,1.0,98,0.00,,,0.00,meteohub,2013-11-03 05:53:00,
2013-11-02 23:58:00,65.3,64.8,29.57,SW,225,0.0,1.0,98,0.00,,,0.00,meteohub,2013-11-03 05:58:00,